Time;durP1;ratioP1;P1;durP2;ratioP2;P2;SDS_P1;SDS_P2;PMS_P1;PMS_P2;Temp;Humidity;BMP_temperature;BMP_pressure;BME280_temperature;BME280_humidity;BME280_pressure;Samples;Min_cycle;Max_cycle;Signal;HPM_P1;HPM_P2
2023/04/05 00:00:19;;;;;;;;;;;;;;;16.36;46.32;102773.19;2072164;28;20296;-59
2023/04/05 00:01:21;;;;;;;;;;;;;;;16.35;46.33;102766.13;2065919;28;19929;-57
2023/04/05 00:02:28;;;;;;;;;;;;;;;16.34;46.38;102768.06;2071592;28;19937;-57
2023/04/05 00:03:30;;;;;;;;;;;;;;;16.35;46.68;102766.13;2072295;28;20320;-57
2023/04/05 00:04:34;;;;;;;;;;;;;;;16.34;46.32;102765.34;2070835;28;19937;-58
2023/04/05 00:05:36;;;;;;;;;;;;;;;16.34;46.46;102765.34;2071787;28;20364;-58
2023/04/05 00:06:42;;;;;;;;;;;;;;;16.34;46.58;102767.25;2064672;28;20269;-57
2023/04/05 00:07:46;;;;;;;;;;;;;;;16.34;46.57;102761.81;2071223;28;19980;-59
2023/04/05 00:08:49;;;;;;;;;;;;;;;16.33;46.32;102763.72;2072189;28;20411;-59
2023/04/05 00:09:51;;;;;;;;;;;;;;;16.34;46.51;102767.25;2068446;28;20309;-58
2023/04/05 00:10:54;;;;;;;;;;;;;;;16.34;46.38;102767.25;2070263;28;20389;-59
2023/04/05 00:11:56;;;;;;;;;;;;;;;16.33;46.39;102768.41;2072900;28;19952;-58
2023/04/05 00:12:59;;;;;;;;;;;;;;;16.33;46.30;102763.72;2071687;28;20650;-58
2023/04/05 00:14:01;;;;;;;;;;;;;;;16.31;46.50;102774.19;2066881;28;19976;-59
2023/04/05 00:15:04;;;;;;;;;;;;;;;16.32;46.23;102762.16;2067901;28;19937;-58
2023/04/05 00:16:06;;;;;;;;;;;;;;;16.33;46.28;102760.22;2066131;28;19934;-59
2023/04/05 00:17:09;;;;;;;;;;;;;;;16.32;46.31;102761.34;2071340;28;20476;-59
2023/04/05 00:18:20;;;;;;;;;;;;;;;16.32;46.31;102755.88;2071408;28;19987;-59
2023/04/05 00:19:23;;;;;;;;;;;;;;;16.32;46.52;102759.41;2067056;28;20025;-59
2023/04/05 00:20:24;;;;;;;;;;;;;;;16.31;46.57;102757.84;2068587;28;19992;-59
2023/04/05 00:21:27;;;;;;;;;;;;;;;16.30;46.63;102756.22;2069064;28;19980;-59
2023/04/05 00:22:30;;;;;;;;;;;;;;;16.30;46.52;102753.50;2072658;28;20300;-57
2023/04/05 00:23:37;;;;;;;;;;;;;;;16.31;46.31;102757.03;2072421;28;20377;-59
2023/04/05 00:24:42;;;;;;;;;;;;;;;16.30;46.49;102750.75;2067234;28;19937;-59
2023/04/05 00:25:45;;;;;;;;;;;;;;;16.30;46.58;102756.22;2068441;28;20390;-58
2023/04/05 00:26:46;;;;;;;;;;;;;;;16.31;46.43;102760.56;2066360;28;19983;-58
2023/04/05 00:27:49;;;;;;;;;;;;;;;16.30;46.46;102761.66;2069309;28;20394;-57
2023/04/05 00:28:51;;;;;;;;;;;;;;;16.29;46.40;102751.09;2071977;28;20451;-58
2023/04/05 00:29:54;;;;;;;;;;;;;;;16.29;46.26;102748.38;2069836;28;19929;-58
2023/04/05 00:30:56;;;;;;;;;;;;;;;16.29;46.31;102754.63;2071989;28;20412;-58
2023/04/05 00:31:58;;;;;;;;;;;;;;;16.29;46.58;102745.66;2069340;28;20356;-59
2023/04/05 00:33:00;;;;;;;;;;;;;;;16.28;46.27;102747.56;2088208;28;19928;-58
2023/04/05 00:34:04;;;;;;;;;;;;;;;16.29;46.21;102751.09;2086118;28;20449;-59
2023/04/05 00:35:06;;;;;;;;;;;;;;;16.28;46.29;102755.75;2069289;28;20293;-59
2023/04/05 00:36:10;;;;;;;;;;;;;;;16.29;46.16;102751.91;2071860;28;19983;-57
2023/04/05 00:37:15;;;;;;;;;;;;;;;16.28;46.49;102747.56;2071614;28;19926;-59
2023/04/05 00:38:17;;;;;;;;;;;;;;;16.27;46.42;102748.72;2072073;28;20517;-59
2023/04/05 00:39:21;;;;;;;;;;;;;;;16.28;46.23;102744.06;2073364;28;20028;-59
2023/04/05 00:40:22;;;;;;;;;;;;;;;16.27;46.43;102745.97;2072464;28;19933;-58
2023/04/05 00:41:25;;;;;;;;;;;;;;;16.28;46.40;102752.25;2071301;28;19930;-59
2023/04/05 00:42:27;;;;;;;;;;;;;;;16.28;46.27;102747.56;2071993;28;20427;-58
2023/04/05 00:43:29;;;;;;;;;;;;;;;16.27;46.30;102745.97;2065977;28;19929;-58
2023/04/05 00:44:33;;;;;;;;;;;;;;;16.27;46.22;102745.97;2070558;28;19937;-58
2023/04/05 00:45:36;;;;;;;;;;;;;;;16.26;46.24;102733.50;2071207;28;20355;-57
2023/04/05 00:46:38;;;;;;;;;;;;;;;16.27;46.31;102742.44;2070914;28;20024;-58
2023/04/05 00:47:41;;;;;;;;;;;;;;;16.27;46.26;102745.19;2071680;28;19925;-57
2023/04/05 00:48:43;;;;;;;;;;;;;;;16.26;46.51;102744.41;2072246;28;19933;-57
2023/04/05 00:49:46;;;;;;;;;;;;;;;16.25;46.28;102740.06;2070961;28;19925;-57
2023/04/05 00:50:48;;;;;;;;;;;;;;;16.25;46.23;102745.50;2071600;28;19936;-57
2023/04/05 00:51:51;;;;;;;;;;;;;;;16.26;46.25;102741.66;2071571;28;19929;-57
2023/04/05 00:52:53;;;;;;;;;;;;;;;16.25;46.41;102734.59;2071805;28;20320;-56
2023/04/05 00:53:56;;;;;;;;;;;;;;;16.25;46.28;102739.28;2072221;28;19926;-57
2023/04/05 00:54:59;;;;;;;;;;;;;;;16.26;46.34;102749.03;2078401;28;20010;-59
2023/04/05 00:56:02;;;;;;;;;;;;;;;16.25;46.45;102748.22;2079014;28;19983;-58
2023/04/05 00:57:06;;;;;;;;;;;;;;;16.25;46.23;102750.97;2071750;28;19975;-58
2023/04/05 00:58:09;;;;;;;;;;;;;;;16.24;46.34;102752.09;2071374;28;19976;-58
2023/04/05 00:59:11;;;;;;;;;;;;;;;16.24;46.47;102752.09;2068287;28;19930;-56
2023/04/05 01:00:14;;;;;;;;;;;;;;;16.24;46.53;102754.81;2071997;28;20729;-57
2023/04/05 01:01:18;;;;;;;;;;;;;;;16.23;46.46;102750.50;2070590;28;20406;-58
2023/04/05 01:02:24;;;;;;;;;;;;;;;16.24;46.23;102745.84;2070967;28;20313;-57
2023/04/05 01:03:30;;;;;;;;;;;;;;;16.24;46.28;102745.84;2071918;28;20286;-57
2023/04/05 01:04:32;;;;;;;;;;;;;;;16.23;46.26;102736.09;2086635;28;20243;-65
2023/04/05 01:05:36;;;;;;;;;;;;;;;16.22;46.12;102735.28;2086130;28;19972;-57
2023/04/05 01:06:43;;;;;;;;;;;;;;;16.22;46.17;102734.50;2071019;28;20383;-57
2023/04/05 01:07:50;;;;;;;;;;;;;;;16.23;46.11;102738.81;2069200;28;19925;-58
2023/04/05 01:08:58;;;;;;;;;;;;;;;16.22;46.38;102740.72;2077859;28;19929;-58
2023/04/05 01:10:04;;;;;;;;;;;;;;;16.22;46.22;102737.22;2070792;28;19925;-58
2023/04/05 01:11:07;;;;;;;;;;;;;;;16.21;46.16;102736.41;2072147;28;19930;-58
2023/04/05 01:12:12;;;;;;;;;;;;;;;16.21;46.41;102735.59;2070406;28;19929;-63
2023/04/05 01:13:15;;;;;;;;;;;;;;;16.21;46.36;102733.69;2069497;28;20321;-58
2023/04/05 01:14:18;;;;;;;;;;;;;;;16.21;46.36;102733.69;2070091;28;20329;-57
2023/04/05 01:15:19;;;;;;;;;;;;;;;16.21;46.31;102732.88;2071047;28;19968;-56
2023/04/05 01:16:22;;;;;;;;;;;;;;;16.21;46.23;102724.72;2079083;28;19942;-58
2023/04/05 01:17:27;;;;;;;;;;;;;;;16.21;46.24;102732.88;2078044;28;19933;-57
2023/04/05 01:18:31;;;;;;;;;;;;;;;16.20;46.29;102723.94;2071468;28;20314;-56
2023/04/05 01:19:33;;;;;;;;;;;;;;;16.20;46.39;102729.38;2065359;28;19930;-57
2023/04/05 01:20:39;;;;;;;;;;;;;;;16.20;46.11;102732.09;2068581;28;20385;-57
2023/04/05 01:22:12;;;;;;;;;;;;;;;16.19;46.35;102719.59;2072032;28;20344;-58
2023/04/05 01:23:30;;;;;;;;;;;;;;;16.20;46.19;102725.84;2080912;28;19933;-57
2023/04/05 01:24:45;;;;;;;;;;;;;;;16.19;46.24;102730.50;2075768;28;20005;-57
2023/04/05 01:26:04;;;;;;;;;;;;;;;16.19;46.39;102724.22;2063932;28;19934;-56
2023/04/05 01:27:09;;;;;;;;;;;;;;;16.18;46.10;102718.00;2063854;28;20397;-59
2023/04/05 01:28:23;;;;;;;;;;;;;;;16.18;46.11;102720.72;2070552;28;20376;-57
2023/04/05 01:29:34;;;;;;;;;;;;;;;16.17;46.39;102730.00;2069697;28;20380;-58
2023/04/05 01:30:38;;;;;;;;;;;;;;;16.18;46.19;102719.91;2070977;28;20416;-58
2023/04/05 01:31:45;;;;;;;;;;;;;;;16.17;46.22;102719.13;2069232;28;19936;-56
2023/04/05 01:32:52;;;;;;;;;;;;;;;16.18;46.26;102715.28;2065474;28;19926;-57
2023/04/05 01:33:57;;;;;;;;;;;;;;;16.16;46.35;102712.09;2064939;28;20016;-57
2023/04/05 01:35:04;;;;;;;;;;;;;;;16.17;46.24;102710.16;2069386;28;20282;-57
2023/04/05 01:36:12;;;;;;;;;;;;;;;16.18;46.27;102714.47;2072051;28;19948;-58
2023/04/05 01:37:18;;;;;;;;;;;;;;;16.17;46.34;102713.66;2071582;28;20317;-56
2023/04/05 01:38:21;;;;;;;;;;;;;;;16.17;46.14;102716.38;2070703;28;19937;-58
2023/04/05 01:39:25;;;;;;;;;;;;;;;16.16;46.23;102717.53;2070609;28;20356;-58
2023/04/05 01:40:27;;;;;;;;;;;;;;;16.17;46.10;102712.88;2063542;28;20428;-57
2023/04/05 01:41:30;;;;;;;;;;;;;;;16.16;46.18;102717.53;2068317;28;19937;-57
2023/04/05 01:42:31;;;;;;;;;;;;;;;16.16;46.17;102712.09;2064790;28;19973;-58
2023/04/05 01:43:34;;;;;;;;;;;;;;;16.16;46.14;102712.09;2068209;28;19936;-56
2023/04/05 01:44:37;;;;;;;;;;;;;;;16.15;46.34;102713.22;2070807;28;19948;-58
2023/04/05 01:45:41;;;;;;;;;;;;;;;16.14;46.30;102706.16;2072245;28;20286;-58
2023/04/05 01:46:44;;;;;;;;;;;;;;;16.15;46.19;102705.03;2073930;28;19940;-59
2023/04/05 01:47:48;;;;;;;;;;;;;;;16.15;46.24;102713.22;2068110;28;20396;-59
2023/04/05 01:48:52;;;;;;;;;;;;;;;16.16;46.11;102708.56;2066587;28;19955;-59
2023/04/05 01:49:55;;;;;;;;;;;;;;;16.16;46.28;102705.81;2068461;28;19936;-59
2023/04/05 01:50:59;;;;;;;;;;;;;;;16.14;46.37;102708.88;2079255;28;19971;-59
2023/04/05 01:52:02;;;;;;;;;;;;;;;16.14;46.15;102708.88;2078501;28;19959;-58
2023/04/05 01:53:04;;;;;;;;;;;;;;;16.14;46.32;102703.44;2066176;28;20405;-58
2023/04/05 01:54:06;;;;;;;;;;;;;;;16.13;46.10;102701.84;2066292;28;19933;-59
2023/04/05 01:55:09;;;;;;;;;;;;;;;16.13;46.31;102712.75;2065837;28;19974;-58
2023/04/05 01:56:12;;;;;;;;;;;;;;;16.14;46.19;102703.44;2069105;28;20440;-58
2023/04/05 01:57:13;;;;;;;;;;;;;;;16.14;46.20;102697.97;2059071;28;19929;-57
2023/04/05 01:58:16;;;;;;;;;;;;;;;16.13;46.35;102707.31;2058843;28;20314;-58
2023/04/05 01:59:17;;;;;;;;;;;;;;;16.14;46.13;102702.66;2066208;28;20351;-58
2023/04/05 02:00:22;;;;;;;;;;;;;;;16.12;46.18;102694.81;2063646;28;19929;-59
2023/04/05 02:01:25;;;;;;;;;;;;;;;16.12;46.10;102700.25;2070588;28;19967;-58
2023/04/05 02:02:27;;;;;;;;;;;;;;;16.13;46.25;102695.59;2070405;28;19929;-58
2023/04/05 02:03:29;;;;;;;;;;;;;;;16.12;46.17;102694.81;2067674;28;19979;-57
2023/04/05 02:04:32;;;;;;;;;;;;;;;16.12;46.16;102694.81;2084555;28;20428;-58
2023/04/05 02:05:34;;;;;;;;;;;;;;;16.12;46.13;102694.81;2087258;28;19977;-56
2023/04/05 02:06:37;;;;;;;;;;;;;;;16.11;46.30;102685.03;2079112;28;19929;-58
2023/04/05 02:07:40;;;;;;;;;;;;;;;16.12;46.41;102689.38;2073959;28;19930;-59
2023/04/05 02:08:45;;;;;;;;;;;;;;;16.11;46.25;102690.47;2066898;28;19934;-58
2023/04/05 02:09:46;;;;;;;;;;;;;;;16.12;45.95;102692.09;2064958;28;19984;-57
2023/04/05 02:10:49;;;;;;;;;;;;;;;16.12;46.39;102691.28;2068081;28;19937;-65
2023/04/05 02:11:51;;;;;;;;;;;;;;;16.11;46.06;102687.75;2070646;28;20306;-58
2023/04/05 02:12:53;;;;;;;;;;;;;;;16.11;46.22;102685.03;2068682;28;19926;-58
2023/04/05 02:13:55;;;;;;;;;;;;;;;16.11;45.97;102685.03;2076520;28;19940;-59
2023/04/05 02:14:58;;;;;;;;;;;;;;;16.10;46.26;102686.16;2073362;28;20307;-58
2023/04/05 02:16:01;;;;;;;;;;;;;;;16.10;46.28;102675.25;2062962;28;19930;-58
2023/04/05 02:17:04;;;;;;;;;;;;;;;16.11;46.04;102687.75;2070077;28;19980;-56
2023/04/05 02:18:06;;;;;;;;;;;;;;;16.11;46.13;102681.53;2070183;28;20369;-58
2023/04/05 02:19:09;;;;;;;;;;;;;;;16.11;46.32;102686.97;2069192;28;20461;-59
2023/04/05 02:20:13;;;;;;;;;;;;;;;16.10;46.37;102688.88;2069864;28;19925;-59
2023/04/05 02:21:16;;;;;;;;;;;;;;;16.11;46.25;102686.97;2065672;28;20393;-58
2023/04/05 02:22:17;;;;;;;;;;;;;;;16.10;46.07;102685.34;2071411;28;19929;-58
2023/04/05 02:23:20;;;;;;;;;;;;;;;16.10;46.17;102679.91;2070894;28;19937;-59
2023/04/05 02:24:21;;;;;;;;;;;;;;;16.10;46.22;102679.91;2086261;28;19975;-59
2023/04/05 02:25:24;;;;;;;;;;;;;;;16.09;46.34;102675.59;2083633;28;20546;-57
2023/04/05 02:26:26;;;;;;;;;;;;;;;16.09;46.29;102673.66;2070674;28;19933;-58
2023/04/05 02:27:29;;;;;;;;;;;;;;;16.09;46.08;102679.09;2070604;28;19929;-59
2023/04/05 02:28:30;;;;;;;;;;;;;;;16.09;45.99;102675.59;2071156;28;19971;-58
2023/04/05 02:29:33;;;;;;;;;;;;;;;16.08;46.32;102677.53;2070841;28;19960;-59
2023/04/05 02:30:35;;;;;;;;;;;;;;;16.08;46.02;102680.25;2072034;28;20374;-58
2023/04/05 02:31:39;;;;;;;;;;;;;;;16.08;46.08;102666.63;2071073;28;20415;-58
2023/04/05 02:32:41;;;;;;;;;;;;;;;16.07;45.99;102665.03;2070875;28;20377;-58
2023/04/05 02:33:44;;;;;;;;;;;;;;;16.07;45.94;102667.75;2074883;28;19929;-60
2023/04/05 02:34:46;;;;;;;;;;;;;;;16.05;46.00;102659.13;2070647;28;20031;-59
2023/04/05 02:35:49;;;;;;;;;;;;;;;16.08;46.03;102674.00;2071415;28;20407;-59
2023/04/05 02:36:52;;;;;;;;;;;;;;;16.07;46.05;102670.47;2071306;28;20044;-58
2023/04/05 02:37:55;;;;;;;;;;;;;;;16.08;46.09;102671.25;2070543;28;19930;-58
2023/04/05 02:38:57;;;;;;;;;;;;;;;16.07;46.23;102665.03;2071116;28;19937;-58
2023/04/05 02:39:59;;;;;;;;;;;;;;;16.07;45.99;102675.13;2072866;28;19975;-57
2023/04/05 02:41:01;;;;;;;;;;;;;;;16.07;46.00;102666.94;2065861;28;19981;-59
2023/04/05 02:42:05;;;;;;;;;;;;;;;16.07;46.11;102675.94;2085840;28;19937;-56
2023/04/05 02:43:07;;;;;;;;;;;;;;;16.07;46.16;102664.22;2088301;28;19968;-58
2023/04/05 02:44:10;;;;;;;;;;;;;;;16.06;46.05;102668.09;2072535;28;19930;-57
2023/04/05 02:45:11;;;;;;;;;;;;;;;16.06;46.12;102663.41;2073735;28;19975;-58
2023/04/05 02:46:14;;;;;;;;;;;;;;;16.06;46.05;102663.41;2072256;28;19929;-59
2023/04/05 02:47:20;;;;;;;;;;;;;;;16.05;46.34;102667.28;2064348;28;19925;-58
2023/04/05 02:48:28;;;;;;;;;;;;;;;16.05;45.94;102661.84;2072111;28;19968;-58
2023/04/05 02:49:29;;;;;;;;;;;;;;;16.04;46.04;102671.16;2072756;28;19929;-58
2023/04/05 02:50:35;;;;;;;;;;;;;;;16.04;46.09;102671.16;2071965;28;19940;-58
2023/04/05 02:51:37;;;;;;;;;;;;;;;16.04;46.16;102665.72;2072721;28;20474;-59
2023/04/05 02:52:43;;;;;;;;;;;;;;;16.05;46.04;102669.22;2072129;28;20016;-59
2023/04/05 02:53:45;;;;;;;;;;;;;;;16.05;46.01;102663.75;2068109;28;20316;-57
2023/04/05 02:54:49;;;;;;;;;;;;;;;16.05;46.24;102666.47;2082764;28;19929;-58
2023/04/05 02:55:58;;;;;;;;;;;;;;;16.04;45.97;102660.25;2087340;28;19932;-59
2023/04/05 02:57:03;;;;;;;;;;;;;;;16.03;45.87;102661.38;2072621;28;19929;-58
2023/04/05 02:58:14;;;;;;;;;;;;;;;16.04;45.99;102659.44;2065689;28;19995;-58
2023/04/05 02:59:21;;;;;;;;;;;;;;;16.03;46.20;102658.63;2072180;28;20472;-57
2023/04/05 03:00:23;;;;;;;;;;;;;;;16.04;45.94;102665.72;2072597;28;20309;-58
2023/04/05 03:01:28;;;;;;;;;;;;;;;16.03;46.06;102658.63;2071077;28;19940;-59
2023/04/05 03:02:31;;;;;;;;;;;;;;;16.03;46.12;102657.88;2072082;28;19929;-57
2023/04/05 03:03:36;;;;;;;;;;;;;;;16.03;45.92;102663.31;2064921;28;19933;-57
2023/04/05 03:04:39;;;;;;;;;;;;;;;16.02;45.96;102662.50;2071260;28;19925;-60
2023/04/05 03:05:42;;;;;;;;;;;;;;;16.03;45.89;102668.75;2071810;28;20385;-59
2023/04/05 03:06:48;;;;;;;;;;;;;;;16.03;46.03;102660.59;2067370;28;20409;-57
2023/04/05 03:07:53;;;;;;;;;;;;;;;16.01;46.04;102655.47;2071084;28;20389;-58
2023/04/05 03:09:03;;;;;;;;;;;;;;;16.01;45.99;102660.94;2088366;28;20435;-56
2023/04/05 03:10:07;;;;;;;;;;;;;;;16.01;46.20;102658.19;2081836;28;19933;-59
2023/04/05 03:11:11;;;;;;;;;;;;;;;16.02;46.20;102658.97;2071825;28;19925;-58
2023/04/05 03:12:17;;;;;;;;;;;;;;;16.01;46.11;102650.03;2064122;28;19929;-59
2023/04/05 03:13:19;;;;;;;;;;;;;;;16.01;46.08;102649.22;2063937;28;19933;-58
2023/04/05 03:14:23;;;;;;;;;;;;;;;16.01;46.16;102660.94;2071733;28;19936;-58
2023/04/05 03:15:26;;;;;;;;;;;;;;;16.01;45.87;102657.41;2071926;28;19988;-57
2023/04/05 03:16:31;;;;;;;;;;;;;;;16.01;46.10;102655.47;2071940;28;20028;-59
2023/04/05 03:17:38;;;;;;;;;;;;;;;16.00;46.16;102651.13;2074820;28;20000;-58
2023/04/05 03:18:41;;;;;;;;;;;;;;;16.00;45.96;102645.69;2078439;28;19964;-58
2023/04/05 03:19:44;;;;;;;;;;;;;;;16.00;46.03;102653.88;2064167;28;19930;-58
2023/04/05 03:20:56;;;;;;;;;;;;;;;16.00;46.04;102642.97;2080432;28;20389;-56
2023/04/05 03:21:58;;;;;;;;;;;;;;;16.01;45.87;102651.94;2079961;28;20352;-58
2023/04/05 03:23:07;;;;;;;;;;;;;;;16.00;46.13;102647.59;2070175;28;20394;-59
2023/04/05 03:24:10;;;;;;;;;;;;;;;16.00;45.91;102653.06;2080672;28;20014;-58
2023/04/05 03:25:16;;;;;;;;;;;;;;;16.00;45.96;102653.06;2085011;28;20019;-59
2023/04/05 03:26:21;;;;;;;;;;;;;;;15.98;45.91;102650.66;2071787;28;19925;-58
2023/04/05 03:27:27;;;;;;;;;;;;;;;15.99;45.82;102646.81;2064306;28;20292;-58
2023/04/05 03:29:00;;;;;;;;;;;;;;;15.98;45.90;102650.66;2057741;28;19941;-57
2023/04/05 03:30:06;;;;;;;;;;;;;;;15.98;45.98;102645.22;2061227;28;19980;-55
2023/04/05 03:31:14;;;;;;;;;;;;;;;15.98;45.86;102649.88;2064133;28;20338;-58
2023/04/05 03:32:16;;;;;;;;;;;;;;;15.98;46.03;102647.94;2077804;28;19991;-58
2023/04/05 03:33:27;;;;;;;;;;;;;;;15.97;45.96;102649.09;2071733;28;20467;-58
2023/04/05 03:34:29;;;;;;;;;;;;;;;15.98;45.94;102650.66;2063284;28;19933;-56
2023/04/05 03:35:37;;;;;;;;;;;;;;;15.97;46.11;102643.63;2071760;28;20401;-57
2023/04/05 03:36:42;;;;;;;;;;;;;;;15.97;45.90;102643.63;2056699;28;20379;-59
2023/04/05 03:37:57;;;;;;;;;;;;;;;15.96;45.99;102639.31;2065814;28;20333;-58
2023/04/05 03:39:00;;;;;;;;;;;;;;;15.98;45.98;102645.22;2071658;28;20317;-57
2023/04/05 03:40:04;;;;;;;;;;;;;;;15.97;46.09;102638.19;2081478;28;20385;-61
2023/04/05 03:41:06;;;;;;;;;;;;;;;15.97;45.95;102643.63;2082354;28;20013;-58
2023/04/05 03:42:09;;;;;;;;;;;;;;;15.97;45.95;102640.91;2087809;28;19928;-56
2023/04/05 03:43:12;;;;;;;;;;;;;;;15.97;45.85;102631.94;2080338;28;20441;-58
2023/04/05 03:44:14;;;;;;;;;;;;;;;15.96;46.05;102639.31;2071619;28;20487;-59
2023/04/05 03:45:16;;;;;;;;;;;;;;;15.97;46.15;102638.19;2072494;28;20439;-58
2023/04/05 03:46:23;;;;;;;;;;;;;;;15.96;45.90;102641.25;2071737;28;19958;-58
2023/04/05 03:47:26;;;;;;;;;;;;;;;15.96;45.71;102635.78;2087294;28;19929;-57
2023/04/05 03:48:29;;;;;;;;;;;;;;;15.96;45.92;102624.91;2072268;28;19929;-58
2023/04/05 03:49:32;;;;;;;;;;;;;;;15.96;45.91;102635.78;2056684;28;19930;-58
2023/04/05 03:50:34;;;;;;;;;;;;;;;15.95;45.86;102629.53;2064480;28;21100;-58
2023/04/05 03:51:36;;;;;;;;;;;;;;;15.95;45.81;102629.53;2074350;28;19929;-58
2023/04/05 03:52:38;;;;;;;;;;;;;;;15.95;45.98;102629.53;2079935;28;19962;-57
2023/04/05 03:53:41;;;;;;;;;;;;;;;15.95;45.96;102629.53;2079897;28;19976;-57
2023/04/05 03:54:42;;;;;;;;;;;;;;;15.95;46.02;102629.53;2078243;28;20413;-57
2023/04/05 03:55:48;;;;;;;;;;;;;;;15.95;46.03;102624.09;2071593;28;20453;-57
2023/04/05 03:56:53;;;;;;;;;;;;;;;15.95;45.92;102623.31;2059956;28;20361;-58
2023/04/05 03:57:55;;;;;;;;;;;;;;;15.94;46.02;102622.50;2070408;28;19960;-60
2023/04/05 03:59:03;;;;;;;;;;;;;;;15.95;45.91;102623.31;2064184;28;19926;-58
2023/04/05 04:00:12;;;;;;;;;;;;;;;15.94;45.79;102627.97;2058500;28;19941;-57
2023/04/05 04:01:15;;;;;;;;;;;;;;;15.94;45.92;102625.22;2069302;28;19990;-57
2023/04/05 04:02:18;;;;;;;;;;;;;;;15.94;45.72;102630.69;2071218;28;20048;-56
2023/04/05 04:03:19;;;;;;;;;;;;;;;15.94;45.84;102622.50;2066698;28;20029;-57
2023/04/05 04:04:26;;;;;;;;;;;;;;;15.93;45.85;102626.38;2070465;28;19964;-57
2023/04/05 04:05:30;;;;;;;;;;;;;;;15.93;46.05;102626.38;2067522;28;20439;-58
2023/04/05 04:06:33;;;;;;;;;;;;;;;15.93;46.05;102617.41;2077221;28;20388;-58
2023/04/05 04:07:36;;;;;;;;;;;;;;;15.92;46.03;102624.75;2077216;28;19937;-57
2023/04/05 04:08:39;;;;;;;;;;;;;;;15.93;45.75;102626.38;2067328;28;19992;-58
2023/04/05 04:09:41;;;;;;;;;;;;;;;15.92;45.83;102619.31;2063581;28;19929;-57
2023/04/05 04:10:45;;;;;;;;;;;;;;;15.93;45.86;102620.91;2058394;28;19934;-58
2023/04/05 04:11:59;;;;;;;;;;;;;;;15.92;45.86;102619.31;2081238;28;19933;-56
2023/04/05 04:13:01;;;;;;;;;;;;;;;15.93;45.72;102612.75;2086334;28;19982;-58
2023/04/05 04:14:06;;;;;;;;;;;;;;;15.92;46.00;102616.59;2071069;28;20385;-57
2023/04/05 04:15:32;;;;;;;;;;;;;;;15.93;45.74;102620.13;2074927;28;20287;-58
2023/04/05 04:16:55;;;;;;;;;;;;;;;15.92;45.82;102615.81;2067979;28;19933;-57
2023/04/05 04:18:19;;;;;;;;;;;;;;;15.91;45.74;102617.72;2068232;28;19938;-57
2023/04/05 04:19:42;;;;;;;;;;;;;;;15.91;45.87;102612.28;2068054;28;19937;-57
2023/04/05 04:21:12;;;;;;;;;;;;;;;15.91;45.75;102617.72;2047145;28;19930;-57
2023/04/05 04:22:44;;;;;;;;;;;;;;;15.91;45.96;102616.91;2078802;28;19995;-58
2023/04/05 04:24:05;;;;;;;;;;;;;;;15.91;45.87;102616.91;2072878;28;19969;-58
2023/04/05 04:25:29;;;;;;;;;;;;;;;15.90;45.91;102615.34;2069283;28;20378;-57
2023/04/05 04:26:53;;;;;;;;;;;;;;;15.90;45.83;102616.13;2071021;28;19929;-58
2023/04/05 04:28:06;;;;;;;;;;;;;;;15.90;45.99;102620.78;2067839;28;20386;-58
2023/04/05 04:29:25;;;;;;;;;;;;;;;15.89;45.86;102622.69;2070005;28;19929;-58
2023/04/05 04:30:46;;;;;;;;;;;;;;;15.88;45.86;102618.41;2065999;28;20599;-56
2023/04/05 04:32:05;;;;;;;;;;;;;;;15.89;45.88;102614.53;2067046;28;20475;-57
2023/04/05 04:33:21;;;;;;;;;;;;;;;15.88;46.03;102612.94;2069202;28;20028;-55
2023/04/05 04:34:49;;;;;;;;;;;;;;;15.89;45.86;102614.53;2072455;28;20340;-57
2023/04/05 04:36:12;;;;;;;;;;;;;;;15.89;45.87;102619.16;2045967;29;20414;-56
2023/04/05 04:37:46;;;;;;;;;;;;;;;15.88;45.92;102617.59;2072599;28;20016;-57
2023/04/05 04:39:16;;;;;;;;;;;;;;;15.88;45.74;102612.13;2087033;28;20520;-58
2023/04/05 04:40:38;;;;;;;;;;;;;;;15.87;45.78;102608.59;2079095;28;19941;-57
2023/04/05 04:42:09;;;;;;;;;;;;;;;15.88;46.00;102614.88;2070435;28;20337;-56
2023/04/05 04:43:42;;;;;;;;;;;;;;;15.87;45.83;102608.59;2070939;28;19968;-58
2023/04/05 04:44:56;;;;;;;;;;;;;;;15.87;45.99;102614.06;2065859;28;20366;-57
2023/04/05 04:46:19;;;;;;;;;;;;;;;15.87;45.89;102622.22;2068373;28;19942;-57
2023/04/05 04:47:37;;;;;;;;;;;;;;;15.88;45.89;102615.66;2070777;28;19994;-61
2023/04/05 04:48:52;;;;;;;;;;;;;;;15.89;46.02;102624.63;2069001;28;19926;-59
2023/04/05 04:50:08;;;;;;;;;;;;;;;15.88;46.20;102620.31;2067765;28;20341;-59
2023/04/05 04:51:11;;;;;;;;;;;;;;;15.88;46.47;102610.22;2071376;28;20439;-58
2023/04/05 04:52:12;;;;;;;;;;;;;;;15.89;46.67;102619.16;2072089;28;19929;-59
2023/04/05 04:53:17;;;;;;;;;;;;;;;15.89;46.71;102614.53;2071542;28;19926;-60
2023/04/05 04:54:21;;;;;;;;;;;;;;;15.88;46.61;102612.94;2071230;28;19941;-60
2023/04/05 04:55:24;;;;;;;;;;;;;;;15.89;46.72;102614.53;2069025;28;20012;-59
2023/04/05 04:56:27;;;;;;;;;;;;;;;15.88;46.88;102615.66;2071623;28;20096;-59
2023/04/05 04:57:30;;;;;;;;;;;;;;;15.88;46.87;102612.94;2078803;28;20443;-59
2023/04/05 04:58:33;;;;;;;;;;;;;;;15.88;46.93;102612.13;2077706;28;19937;-59
2023/04/05 04:59:38;;;;;;;;;;;;;;;15.87;46.80;102614.06;2068204;28;20389;-58
2023/04/05 05:00:42;;;;;;;;;;;;;;;15.89;46.83;102613.72;2068836;28;19934;-59
2023/04/05 05:01:45;;;;;;;;;;;;;;;15.87;47.02;102614.06;2075662;28;19933;-58
2023/04/05 05:02:47;;;;;;;;;;;;;;;15.87;46.90;102614.06;2076760;28;19936;-59
2023/04/05 05:03:50;;;;;;;;;;;;;;;15.87;46.97;102622.22;2087764;28;20004;-55
2023/04/05 05:05:00;;;;;;;;;;;;;;;15.86;46.73;102617.91;2078425;28;19933;-60
2023/04/05 05:06:04;;;;;;;;;;;;;;;15.88;46.79;102614.88;2069183;28;20284;-60
2023/04/05 05:07:09;;;;;;;;;;;;;;;15.89;47.18;102614.53;2086553;28;19974;-56
2023/04/05 05:08:11;;;;;;;;;;;;;;;15.90;47.79;102602.50;2084847;28;19925;-63
2023/04/05 05:09:15;;;;;;;;;;;;;;;15.92;47.70;102608.41;2084292;28;19929;-58
2023/04/05 05:10:26;;;;;;;;;;;;;;;15.94;48.30;102600.72;2075433;28;19933;-58
2023/04/05 05:11:35;;;;;;;;;;;;;;;15.96;48.35;102601.19;2062449;28;19952;-59
2023/04/05 05:12:40;;;;;;;;;;;;;;;15.97;48.16;102601.97;2061867;28;19937;-59
2023/04/05 05:13:44;;;;;;;;;;;;;;;15.96;48.26;102603.91;2075216;28;19929;-59
2023/04/05 05:14:55;;;;;;;;;;;;;;;15.96;48.27;102597.66;2063836;28;20401;-58
2023/04/05 05:16:00;;;;;;;;;;;;;;;15.95;48.20;102607.75;2067344;28;19955;-59
2023/04/05 05:17:04;;;;;;;;;;;;;;;15.95;48.25;102596.84;2069924;28;20415;-58
2023/04/05 05:18:07;;;;;;;;;;;;;;;15.95;48.09;102599.56;2067939;28;19936;-58
2023/04/05 05:19:09;;;;;;;;;;;;;;;15.94;48.10;102597.19;2069496;28;19945;-58
2023/04/05 05:20:27;;;;;;;;;;;;;;;15.94;48.28;102606.16;2051778;28;19936;-57
2023/04/05 05:21:30;;;;;;;;;;;;;;;15.93;48.07;102604.56;2055405;28;20623;-57
2023/04/05 05:22:35;;;;;;;;;;;;;;;15.92;48.10;102602.97;2078042;28;19944;-58
2023/04/05 05:23:37;;;;;;;;;;;;;;;15.93;48.13;102599.13;2079041;28;19969;-59
2023/04/05 05:24:40;;;;;;;;;;;;;;;15.91;48.09;102595.94;2070226;28;19940;-58
2023/04/05 05:25:41;;;;;;;;;;;;;;;15.91;47.90;102595.94;2070495;28;19930;-57
2023/04/05 05:26:44;;;;;;;;;;;;;;;15.90;48.10;102599.78;2071656;28;19979;-58
2023/04/05 05:27:47;;;;;;;;;;;;;;;15.90;48.08;102594.31;2070084;28;20385;-58
2023/04/05 05:28:49;;;;;;;;;;;;;;;15.90;47.94;102599.00;2069181;28;19929;-59
2023/04/05 05:29:51;;;;;;;;;;;;;;;15.89;47.84;102600.91;2069251;28;19930;-57
2023/04/05 05:30:54;;;;;;;;;;;;;;;15.89;47.81;102598.19;2069329;28;19925;-59
2023/04/05 05:31:56;;;;;;;;;;;;;;;15.90;47.84;102596.28;2070945;28;19936;-58
2023/04/05 05:32:58;;;;;;;;;;;;;;;15.88;47.83;102591.16;2071862;28;20385;-58
2023/04/05 05:34:00;;;;;;;;;;;;;;;15.88;47.83;102585.72;2071322;28;19937;-58
2023/04/05 05:35:03;;;;;;;;;;;;;;;15.88;47.79;102599.31;2071024;28;20023;-57
2023/04/05 05:36:05;;;;;;;;;;;;;;;15.87;47.94;102589.53;2069854;28;19929;-58
2023/04/05 05:37:09;;;;;;;;;;;;;;;15.88;47.74;102593.88;2070827;28;20297;-59